Terminal Aerodrome Forecast
Issued by NWS Pueblo, CO

Home | Current Version | Previous Version | Text Only | Print | Product List | Glossary On
Versions: 1 2 3 4 5 6 7 8 9 10 11 12 13 14
000
FTUS45 KPUB 211120
TAFALS
TAF
KALS 211120Z 2112/2212 VRB05KT P6SM SCT080 SCT120
     FM211900 20010KT P6SM SCT070 BKN120
     FM212000 24012G22KT P6SM VCSH SCT060 BKN100
     FM220200 17008KT P6SM FEW080 SCT200=

USA.gov is the U.S. government's official web portal to all federal, state and local government web resources and services.